< < Back
Terminal Aerodrome Forecast


Current Version              Previous Versions:   1  2  3  4  5  6  7  8  9  

Terminal Aerodrome Forecast

497
FTUS42 KGSP 301700 RRA
TAFCLT
TAF
KCLT 301742Z 3018/3118 16004KT P6SM BKN040
     FM302200 17003KT P6SM SCT040 BKN250
     FM311100 18004KT 5SM BR BKN045
     FM311300 19004KT P6SM SCT045=



Latest METAR

017
SAUS70 KWBC 310000 RRV
MTRCLT
METAR KCLT 302352Z COR 17005KT 10SM BKN250 29/17 A3012 RMK AO2 SLP189
T02890172 10322 20289 55001


USA.gov is the U.S. government's official web portal to all federal, state and local government web resources and services.